sensor_id;sensor_type;location;lat;lon;timestamp;pressure;altitude;pressure_sealevel;temperature;humidity
76424;BME280;65257;52.104;4.268;2023-06-14T00:02:11;101462.72;;;19.42;100.00
76424;BME280;65257;52.104;4.268;2023-06-14T00:04:36;101454.94;;;19.39;100.00
76424;BME280;65257;52.104;4.268;2023-06-14T00:07:04;101467.88;;;19.37;100.00
76424;BME280;65257;52.104;4.268;2023-06-14T00:09:33;101470.44;;;19.35;100.00
76424;BME280;65257;52.104;4.268;2023-06-14T00:11:58;101470.34;;;19.26;100.00
76424;BME280;65257;52.104;4.268;2023-06-14T00:14:24;101466.97;;;19.33;100.00
76424;BME280;65257;52.104;4.268;2023-06-14T00:16:50;101467.75;;;19.25;100.00
76424;BME280;65257;52.104;4.268;2023-06-14T00:19:17;101465.13;;;19.23;100.00
76424;BME280;65257;52.104;4.268;2023-06-14T00:21:43;101465.97;;;19.21;100.00
76424;BME280;65257;52.104;4.268;2023-06-14T00:24:09;101470.31;;;19.20;100.00
76424;BME280;65257;52.104;4.268;2023-06-14T00:26:34;101464.25;;;19.20;100.00
76424;BME280;65257;52.104;4.268;2023-06-14T00:28:59;101465.91;;;19.15;100.00
76424;BME280;65257;52.104;4.268;2023-06-14T00:31:25;101471.00;;;19.06;100.00
76424;BME280;65257;52.104;4.268;2023-06-14T00:33:50;101471.91;;;19.09;100.00
76424;BME280;65257;52.104;4.268;2023-06-14T00:36:16;101471.88;;;19.05;100.00
76424;BME280;65257;52.104;4.268;2023-06-14T00:38:41;101473.69;;;19.16;100.00
76424;BME280;65257;52.104;4.268;2023-06-14T00:41:07;101470.22;;;19.16;100.00
76424;BME280;65257;52.104;4.268;2023-06-14T00:43:32;101468.44;;;19.07;100.00
76424;BME280;65257;52.104;4.268;2023-06-14T00:46:00;101465.81;;;19.04;100.00
76424;BME280;65257;52.104;4.268;2023-06-14T00:48:25;101465.84;;;19.09;100.00
76424;BME280;65257;52.104;4.268;2023-06-14T00:50:51;101468.44;;;19.07;100.00
76424;BME280;65257;52.104;4.268;2023-06-14T00:53:18;101462.41;;;19.11;100.00
76424;BME280;65257;52.104;4.268;2023-06-14T00:55:46;101464.13;;;19.09;100.00
76424;BME280;65257;52.104;4.268;2023-06-14T00:58:12;101460.66;;;19.07;100.00
76424;BME280;65257;52.104;4.268;2023-06-14T01:00:37;101468.50;;;19.15;100.00
76424;BME280;65257;52.104;4.268;2023-06-14T01:03:03;101467.63;;;19.14;100.00
76424;BME280;65257;52.104;4.268;2023-06-14T01:05:29;101460.63;;;19.03;100.00
76424;BME280;65257;52.104;4.268;2023-06-14T01:08:20;101461.50;;;19.05;100.00
76424;BME280;65257;52.104;4.268;2023-06-14T01:10:52;101454.50;;;18.99;100.00
76424;BME280;65257;52.104;4.268;2023-06-14T01:13:39;101456.22;;;19.00;100.00
76424;BME280;65257;52.104;4.268;2023-06-14T01:16:08;101453.59;;;18.96;100.00
76424;BME280;65257;52.104;4.268;2023-06-14T01:18:34;101459.63;;;18.93;100.00
76424;BME280;65257;52.104;4.268;2023-06-14T01:21:00;101451.84;;;18.93;100.00
76424;BME280;65257;52.104;4.268;2023-06-14T01:23:31;101457.84;;;18.89;100.00
76424;BME280;65257;52.104;4.268;2023-06-14T01:26:00;101451.72;;;18.80;100.00
76424;BME280;65257;52.104;4.268;2023-06-14T01:28:28;101462.94;;;18.80;100.00
76424;BME280;65257;52.104;4.268;2023-06-14T01:31:00;101452.56;;;18.80;100.00
76424;BME280;65257;52.104;4.268;2023-06-14T01:33:29;101462.91;;;18.77;100.00
76424;BME280;65257;52.104;4.268;2023-06-14T01:35:56;101463.72;;;18.73;100.00
76424;BME280;65257;52.104;4.268;2023-06-14T01:38:24;101464.53;;;18.69;100.00
76424;BME280;65257;52.104;4.268;2023-06-14T01:40:50;101462.75;;;18.65;100.00
76424;BME280;65257;52.104;4.268;2023-06-14T01:43:18;101464.47;;;18.63;100.00
76424;BME280;65257;52.104;4.268;2023-06-14T01:45:45;101466.97;;;18.55;100.00
76424;BME280;65257;52.104;4.268;2023-06-14T01:48:12;101467.88;;;18.59;100.00
76424;BME280;65257;52.104;4.268;2023-06-14T01:50:38;101457.44;;;18.54;100.00
76424;BME280;65257;52.104;4.268;2023-06-14T01:53:07;101465.09;;;18.47;100.00
76424;BME280;65257;52.104;4.268;2023-06-14T01:55:33;101465.94;;;18.46;100.00
76424;BME280;65257;52.104;4.268;2023-06-14T01:58:05;101461.69;;;18.48;100.00
76424;BME280;65257;52.104;4.268;2023-06-14T02:00:30;101454.66;;;18.41;100.00
76424;BME280;65257;52.104;4.268;2023-06-14T02:02:56;101453.72;;;18.37;100.00
76424;BME280;65257;52.104;4.268;2023-06-14T02:05:22;101445.06;;;18.37;100.00
76424;BME280;65257;52.104;4.268;2023-06-14T02:07:47;101452.78;;;18.32;100.00
76424;BME280;65257;52.104;4.268;2023-06-14T02:10:13;101451.91;;;18.30;100.00
76424;BME280;65257;52.104;4.268;2023-06-14T02:12:39;101454.44;;;18.27;100.00
76424;BME280;65257;52.104;4.268;2023-06-14T02:15:05;101453.56;;;18.25;100.00
76424;BME280;65257;52.104;4.268;2023-06-14T02:17:31;101450.94;;;18.21;100.00
76424;BME280;65257;52.104;4.268;2023-06-14T02:19:56;101451.72;;;18.17;100.00
76424;BME280;65257;52.104;4.268;2023-06-14T02:22:22;101456.91;;;18.17;100.00
76424;BME280;65257;52.104;4.268;2023-06-14T02:24:48;101453.38;;;18.11;100.00
76424;BME280;65257;52.104;4.268;2023-06-14T02:27:14;101454.16;;;18.06;100.00
76424;BME280;65257;52.104;4.268;2023-06-14T02:29:39;101457.56;;;18.03;100.00
76424;BME280;65257;52.104;4.268;2023-06-14T02:32:05;101454.91;;;18.00;100.00
76424;BME280;65257;52.104;4.268;2023-06-14T02:34:33;101449.75;;;18.00;100.00
76424;BME280;65257;52.104;4.268;2023-06-14T02:36:59;101456.56;;;17.95;100.00
76424;BME280;65257;52.104;4.268;2023-06-14T02:39:24;101454.91;;;17.97;100.00
76424;BME280;65257;52.104;4.268;2023-06-14T02:41:50;101454.84;;;17.94;100.00
76424;BME280;65257;52.104;4.268;2023-06-14T02:44:17;101449.69;;;17.94;100.00
76424;BME280;65257;52.104;4.268;2023-06-14T02:46:43;101449.63;;;17.91;100.00
76424;BME280;65257;52.104;4.268;2023-06-14T02:49:09;101451.28;;;17.86;100.00
76424;BME280;65257;52.104;4.268;2023-06-14T02:51:35;101454.69;;;17.85;100.00
76424;BME280;65257;52.104;4.268;2023-06-14T02:54:00;101453.81;;;17.82;100.00
76424;BME280;65257;52.104;4.268;2023-06-14T02:56:26;101457.22;;;17.82;100.00
76424;BME280;65257;52.104;4.268;2023-06-14T02:58:53;101463.22;;;17.78;100.00
76424;BME280;65257;52.104;4.268;2023-06-14T03:01:19;101456.28;;;17.74;100.00
76424;BME280;65257;52.104;4.268;2023-06-14T03:03:46;101464.94;;;17.76;100.00
76424;BME280;65257;52.104;4.268;2023-06-14T03:06:11;101470.88;;;17.72;100.00
76424;BME280;65257;52.104;4.268;2023-06-14T03:08:39;101469.09;;;17.67;100.00
76424;BME280;65257;52.104;4.268;2023-06-14T03:11:07;101469.94;;;17.67;100.00
76424;BME280;65257;52.104;4.268;2023-06-14T03:13:33;101474.22;;;17.65;100.00
76424;BME280;65257;52.104;4.268;2023-06-14T03:15:59;101472.44;;;17.61;100.00
76424;BME280;65257;52.104;4.268;2023-06-14T03:18:25;101471.53;;;17.59;100.00
76424;BME280;65257;52.104;4.268;2023-06-14T03:20:52;101469.84;;;17.61;100.00
76424;BME280;65257;52.104;4.268;2023-06-14T03:23:19;101479.28;;;17.58;100.00
76424;BME280;65257;52.104;4.268;2023-06-14T03:25:44;101474.94;;;17.57;100.00
76424;BME280;65257;52.104;4.268;2023-06-14T03:28:10;101480.09;;;17.55;100.00
76424;BME280;65257;52.104;4.268;2023-06-14T03:30:35;101485.19;;;17.52;100.00
76424;BME280;65257;52.104;4.268;2023-06-14T03:33:01;101483.41;;;17.48;100.00
76424;BME280;65257;52.104;4.268;2023-06-14T03:35:27;101482.53;;;17.49;100.00
76424;BME280;65257;52.104;4.268;2023-06-14T03:37:53;101488.50;;;17.45;100.00
76424;BME280;65257;52.104;4.268;2023-06-14T03:40:19;101489.41;;;17.47;100.00
76424;BME280;65257;52.104;4.268;2023-06-14T03:42:52;101492.88;;;17.47;100.00
76424;BME280;65257;52.104;4.268;2023-06-14T03:45:17;101493.69;;;17.45;100.00
76424;BME280;65257;52.104;4.268;2023-06-14T03:47:43;101489.41;;;17.47;100.00
76424;BME280;65257;52.104;4.268;2023-06-14T03:50:08;101491.94;;;17.44;100.00
76424;BME280;65257;52.104;4.268;2023-06-14T03:52:34;101491.91;;;17.41;100.00
76424;BME280;65257;52.104;4.268;2023-06-14T03:54:59;101498.81;;;17.42;100.00
76424;BME280;65257;52.104;4.268;2023-06-14T03:57:26;101492.75;;;17.41;100.00
76424;BME280;65257;52.104;4.268;2023-06-14T03:59:51;101497.91;;;17.40;100.00
76424;BME280;65257;52.104;4.268;2023-06-14T04:02:17;101500.84;;;17.58;100.00
76424;BME280;65257;52.104;4.268;2023-06-14T04:04:43;101501.13;;;17.73;100.00
76424;BME280;65257;52.104;4.268;2023-06-14T04:07:14;101501.22;;;17.81;100.00
76424;BME280;65257;52.104;4.268;2023-06-14T04:09:40;101510.19;;;17.99;100.00
76424;BME280;65257;52.104;4.268;2023-06-14T04:12:06;101511.06;;;18.01;100.00
76424;BME280;65257;52.104;4.268;2023-06-14T04:14:34;101512.00;;;18.06;100.00
76424;BME280;65257;52.104;4.268;2023-06-14T04:16:59;101515.53;;;18.11;100.00
76424;BME280;65257;52.104;4.268;2023-06-14T04:19:25;101521.72;;;18.21;100.00
76424;BME280;65257;52.104;4.268;2023-06-14T04:21:50;101513.22;;;18.31;100.00
76424;BME280;65257;52.104;4.268;2023-06-14T04:24:16;101518.34;;;18.27;100.00
76424;BME280;65257;52.104;4.268;2023-06-14T04:26:45;101509.91;;;18.41;100.00
76424;BME280;65257;52.104;4.268;2023-06-14T04:29:11;101510.78;;;18.42;100.00
76424;BME280;65257;52.104;4.268;2023-06-14T04:31:44;101516.09;;;18.48;100.00
76424;BME280;65257;52.104;4.268;2023-06-14T04:34:10;101517.03;;;18.53;100.00
76424;BME280;65257;52.104;4.268;2023-06-14T04:36:42;101515.63;;;18.74;100.00
76424;BME280;65257;52.104;4.268;2023-06-14T04:39:17;101521.69;;;18.78;100.00
76424;BME280;65257;52.104;4.268;2023-06-14T04:41:43;101525.56;;;19.13;100.00
76424;BME280;65257;52.104;4.268;2023-06-14T04:44:08;101521.03;;;18.94;100.00
76424;BME280;65257;52.104;4.268;2023-06-14T04:46:35;101516.50;;;18.78;100.00
76424;BME280;65257;52.104;4.268;2023-06-14T04:49:10;101509.69;;;18.86;100.00
76424;BME280;65257;52.104;4.268;2023-06-14T04:51:39;101523.84;;;19.12;100.00
76424;BME280;65257;52.104;4.268;2023-06-14T04:54:05;101515.53;;;19.42;100.00
76424;BME280;65257;52.104;4.268;2023-06-14T04:56:36;101513.69;;;19.36;100.00
76424;BME280;65257;52.104;4.268;2023-06-14T04:59:03;101517.34;;;19.52;100.00
76424;BME280;65257;52.104;4.268;2023-06-14T05:01:30;101520.94;;;19.65;100.00
76424;BME280;65257;52.104;4.268;2023-06-14T05:03:57;101525.06;;;19.45;100.00
76424;BME280;65257;52.104;4.268;2023-06-14T05:06:23;101528.34;;;19.31;100.00
76424;BME280;65257;52.104;4.268;2023-06-14T05:08:49;101524.34;;;19.58;100.00
76424;BME280;65257;52.104;4.268;2023-06-14T05:11:15;101524.38;;;19.61;100.00
76424;BME280;65257;52.104;4.268;2023-06-14T05:13:42;101526.31;;;19.86;100.00
76424;BME280;65257;52.104;4.268;2023-06-14T05:16:07;101538.31;;;19.72;100.00
76424;BME280;65257;52.104;4.268;2023-06-14T05:18:33;101527.94;;;19.75;100.00
76424;BME280;65257;52.104;4.268;2023-06-14T05:21:02;101532.47;;;19.98;100.00
76424;BME280;65257;52.104;4.268;2023-06-14T05:23:29;101536.94;;;20.16;100.00
76424;BME280;65257;52.104;4.268;2023-06-14T05:25:55;101533.41;;;20.08;100.00
76424;BME280;65257;52.104;4.268;2023-06-14T05:28:22;101547.34;;;20.13;100.00
76424;BME280;65257;52.104;4.268;2023-06-14T05:30:47;101529.88;;;19.97;100.00
76424;BME280;65257;52.104;4.268;2023-06-14T05:33:13;101533.66;;;20.38;100.00
76424;BME280;65257;52.104;4.268;2023-06-14T05:35:38;101535.16;;;20.09;100.00
76424;BME280;65257;52.104;4.268;2023-06-14T05:38:04;101537.25;;;20.58;100.00
76424;BME280;65257;52.104;4.268;2023-06-14T05:40:29;101522.41;;;20.39;100.00
76424;BME280;65257;52.104;4.268;2023-06-14T05:42:55;101532.06;;;20.62;100.00
76424;BME280;65257;52.104;4.268;2023-06-14T05:45:20;101539.88;;;20.62;100.00
76424;BME280;65257;52.104;4.268;2023-06-14T05:47:45;101537.53;;;21.22;100.00
76424;BME280;65257;52.104;4.268;2023-06-14T05:50:11;101537.28;;;20.65;100.00
76424;BME280;65257;52.104;4.268;2023-06-14T05:52:36;101542.63;;;21.01;100.00
76424;BME280;65257;52.104;4.268;2023-06-14T05:55:03;101542.50;;;20.68;100.00
76424;BME280;65257;52.104;4.268;2023-06-14T05:57:28;101547.94;;;21.10;100.00
76424;BME280;65257;52.104;4.268;2023-06-14T05:59:54;101557.47;;;21.17;100.00
76424;BME280;65257;52.104;4.268;2023-06-14T06:02:20;101565.97;;;20.83;100.00
76424;BME280;65257;52.104;4.268;2023-06-14T06:04:45;101560.00;;;21.02;100.00
76424;BME280;65257;52.104;4.268;2023-06-14T06:07:10;101542.81;;;21.58;100.00
76424;BME280;65257;52.104;4.268;2023-06-14T06:09:36;101537.63;;;21.70;100.00
76424;BME280;65257;52.104;4.268;2023-06-14T06:12:02;101555.78;;;21.24;100.00
76424;BME280;65257;52.104;4.268;2023-06-14T06:14:28;101560.22;;;21.80;100.00
76424;BME280;65257;52.104;4.268;2023-06-14T06:16:54;101556.78;;;22.18;100.00
76424;BME280;65257;52.104;4.268;2023-06-14T06:19:19;101555.00;;;22.35;100.00
76424;BME280;65257;52.104;4.268;2023-06-14T06:21:45;101556.72;;;22.72;100.00
76424;BME280;65257;52.104;4.268;2023-06-14T06:24:10;101561.94;;;22.51;100.00
76424;BME280;65257;52.104;4.268;2023-06-14T06:26:36;101556.72;;;22.69;100.00
76424;BME280;65257;52.104;4.268;2023-06-14T06:29:02;101565.19;;;23.23;100.00
76424;BME280;65257;52.104;4.268;2023-06-14T06:31:27;101570.53;;;22.95;100.00
76424;BME280;65257;52.104;4.268;2023-06-14T06:33:54;101573.06;;;23.18;100.00
76424;BME280;65257;52.104;4.268;2023-06-14T06:36:19;101569.69;;;22.87;100.00
76424;BME280;65257;52.104;4.268;2023-06-14T06:38:47;101578.38;;;22.94;100.00
76424;BME280;65257;52.104;4.268;2023-06-14T06:41:12;101577.53;;;22.90;100.00
76424;BME280;65257;52.104;4.268;2023-06-14T06:43:38;101581.06;;;22.56;100.00
76424;BME280;65257;52.104;4.268;2023-06-14T06:46:03;101584.59;;;22.31;100.00
76424;BME280;65257;52.104;4.268;2023-06-14T06:48:28;101582.31;;;23.75;100.00
76424;BME280;65257;52.104;4.268;2023-06-14T06:50:54;101585.56;;;24.10;100.00
76424;BME280;65257;52.104;4.268;2023-06-14T06:53:20;101590.16;;;23.77;100.00
76424;BME280;65257;52.104;4.268;2023-06-14T06:55:45;101593.69;;;24.73;100.00
76424;BME280;65257;52.104;4.268;2023-06-14T06:58:12;101600.63;;;24.74;95.67
76424;BME280;65257;52.104;4.268;2023-06-14T07:00:37;101596.22;;;24.82;94.31
76424;BME280;65257;52.104;4.268;2023-06-14T07:03:03;101602.50;;;24.63;91.08
76424;BME280;65257;52.104;4.268;2023-06-14T07:05:29;101605.38;;;24.36;98.08
76424;BME280;65257;52.104;4.268;2023-06-14T07:07:55;101606.88;;;24.61;95.15
76424;BME280;65257;52.104;4.268;2023-06-14T07:10:20;101608.53;;;25.42;90.96
76424;BME280;65257;52.104;4.268;2023-06-14T07:12:46;101612.41;;;25.14;85.25
76424;BME280;65257;52.104;4.268;2023-06-14T07:15:12;101605.91;;;25.42;83.62
76424;BME280;65257;52.104;4.268;2023-06-14T07:17:37;101612.66;;;26.21;79.24
76424;BME280;65257;52.104;4.268;2023-06-14T07:20:03;101608.41;;;26.13;76.27
76424;BME280;65257;52.104;4.268;2023-06-14T07:22:41;101614.84;;;25.92;75.87
76424;BME280;65257;52.104;4.268;2023-06-14T07:25:11;101613.53;;;26.20;74.20
76424;BME280;65257;52.104;4.268;2023-06-14T07:27:43;101616.47;;;25.99;73.75
76424;BME280;65257;52.104;4.268;2023-06-14T07:30:09;101626.66;;;24.92;84.03
76424;BME280;65257;52.104;4.268;2023-06-14T07:32:34;101623.88;;;25.06;90.68
76424;BME280;65257;52.104;4.268;2023-06-14T07:35:00;101616.00;;;25.07;88.74
76424;BME280;65257;52.104;4.268;2023-06-14T07:37:25;101620.25;;;25.19;93.06
76424;BME280;65257;52.104;4.268;2023-06-14T07:39:51;101619.59;;;25.66;87.67
76424;BME280;65257;52.104;4.268;2023-06-14T07:42:16;101617.59;;;25.84;82.20
76424;BME280;65257;52.104;4.268;2023-06-14T07:44:45;101623.94;;;26.73;73.59
76424;BME280;65257;52.104;4.268;2023-06-14T07:47:11;101625.63;;;26.81;67.17
76424;BME280;65257;52.104;4.268;2023-06-14T07:49:36;101623.78;;;26.86;65.27
76424;BME280;65257;52.104;4.268;2023-06-14T07:52:03;101634.09;;;26.95;63.50
76424;BME280;65257;52.104;4.268;2023-06-14T07:54:30;101627.25;;;26.86;64.34
76424;BME280;65257;52.104;4.268;2023-06-14T07:56:57;101640.59;;;26.74;66.29
76424;BME280;65257;52.104;4.268;2023-06-14T07:59:25;101638.47;;;26.96;61.72
76424;BME280;65257;52.104;4.268;2023-06-14T08:01:51;101643.00;;;26.88;63.70
76424;BME280;65257;52.104;4.268;2023-06-14T08:04:19;101639.59;;;26.83;65.33
76424;BME280;65257;52.104;4.268;2023-06-14T08:06:45;101642.00;;;27.36;61.19
76424;BME280;65257;52.104;4.268;2023-06-14T08:09:11;101633.34;;;27.72;58.18
76424;BME280;65257;52.104;4.268;2023-06-14T08:11:37;101648.81;;;28.23;53.77
76424;BME280;65257;52.104;4.268;2023-06-14T08:14:03;101640.97;;;28.20;50.09
76424;BME280;65257;52.104;4.268;2023-06-14T08:16:29;101640.56;;;28.00;51.71
76424;BME280;65257;52.104;4.268;2023-06-14T08:18:55;101633.97;;;27.01;59.29
76424;BME280;65257;52.104;4.268;2023-06-14T08:21:20;101641.03;;;28.18;57.27
76424;BME280;65257;52.104;4.268;2023-06-14T08:23:46;101629.28;;;27.96;53.28
76424;BME280;65257;52.104;4.268;2023-06-14T08:26:11;101637.56;;;28.16;50.60
76424;BME280;65257;52.104;4.268;2023-06-14T08:28:37;101640.16;;;28.18;49.38
76424;BME280;65257;52.104;4.268;2023-06-14T08:31:02;101638.84;;;27.99;49.22
76424;BME280;65257;52.104;4.268;2023-06-14T08:33:27;101645.50;;;28.50;46.77
76424;BME280;65257;52.104;4.268;2023-06-14T08:35:58;101637.88;;;28.38;45.86
76424;BME280;65257;52.104;4.268;2023-06-14T08:38:23;101647.69;;;28.68;46.38
76424;BME280;65257;52.104;4.268;2023-06-14T08:40:50;101647.31;;;28.46;41.80
76424;BME280;65257;52.104;4.268;2023-06-14T08:43:17;101651.22;;;28.67;43.44
76424;BME280;65257;52.104;4.268;2023-06-14T08:45:45;101647.72;;;28.31;42.38
76424;BME280;65257;52.104;4.268;2023-06-14T08:48:11;101650.56;;;28.58;41.51
76424;BME280;65257;52.104;4.268;2023-06-14T08:50:39;101653.09;;;28.62;42.73
76424;BME280;65257;52.104;4.268;2023-06-14T08:53:08;101647.06;;;28.89;39.92
76424;BME280;65257;52.104;4.268;2023-06-14T08:55:36;101659.56;;;28.14;41.10
76424;BME280;65257;52.104;4.268;2023-06-14T08:58:05;101671.00;;;27.74;42.34
76424;BME280;65257;52.104;4.268;2023-06-14T09:00:30;101647.13;;;27.44;47.17
76424;BME280;65257;52.104;4.268;2023-06-14T09:02:58;101654.13;;;28.20;44.62
76424;BME280;65257;52.104;4.268;2023-06-14T09:05:27;101662.72;;;28.95;42.30
76424;BME280;65257;52.104;4.268;2023-06-14T09:07:53;101663.25;;;28.07;46.25
76424;BME280;65257;52.104;4.268;2023-06-14T09:10:21;101657.91;;;28.10;47.90
76424;BME280;65257;52.104;4.268;2023-06-14T09:12:51;101651.63;;;27.78;47.37
76424;BME280;65257;52.104;4.268;2023-06-14T09:15:16;101659.84;;;28.72;47.93
76424;BME280;65257;52.104;4.268;2023-06-14T09:17:42;101658.47;;;28.91;44.54
76424;BME280;65257;52.104;4.268;2023-06-14T09:20:09;101657.31;;;29.01;42.50
76424;BME280;65257;52.104;4.268;2023-06-14T09:22:44;101661.00;;;28.94;43.12
76424;BME280;65257;52.104;4.268;2023-06-14T09:25:09;101663.97;;;29.14;42.65
76424;BME280;65257;52.104;4.268;2023-06-14T09:27:36;101668.78;;;29.60;42.39
76424;BME280;65257;52.104;4.268;2023-06-14T09:30:11;101659.28;;;30.10;40.50
76424;BME280;65257;52.104;4.268;2023-06-14T09:32:38;101673.09;;;29.63;39.31
76424;BME280;65257;52.104;4.268;2023-06-14T09:35:06;101667.31;;;29.50;41.51
76424;BME280;65257;52.104;4.268;2023-06-14T09:37:32;101670.34;;;29.95;39.92
76424;BME280;65257;52.104;4.268;2023-06-14T09:39:58;101663.88;;;30.31;37.86
76424;BME280;65257;52.104;4.268;2023-06-14T09:42:24;101659.38;;;30.07;38.75
76424;BME280;65257;52.104;4.268;2023-06-14T09:44:55;101659.28;;;30.10;35.94
76424;BME280;65257;52.104;4.268;2023-06-14T09:47:21;101665.28;;;30.15;35.78
76424;BME280;65257;52.104;4.268;2023-06-14T09:49:48;101664.19;;;30.49;34.09
76424;BME280;65257;52.104;4.268;2023-06-14T09:52:16;101677.06;;;28.85;36.00
76424;BME280;65257;52.104;4.268;2023-06-14T09:54:44;101665.22;;;30.45;33.85
76424;BME280;65257;52.104;4.268;2023-06-14T09:57:12;101658.88;;;30.75;31.70
76424;BME280;65257;52.104;4.268;2023-06-14T09:59:44;101663.09;;;30.56;32.15
76424;BME280;65257;52.104;4.268;2023-06-14T10:02:36;101659.16;;;30.41;31.57
76424;BME280;65257;52.104;4.268;2023-06-14T10:05:09;101670.06;;;30.57;31.02
76424;BME280;65257;52.104;4.268;2023-06-14T10:07:45;101666.03;;;30.47;30.32
76424;BME280;65257;52.104;4.268;2023-06-14T10:10:14;101662.13;;;30.30;30.53
76424;BME280;65257;52.104;4.268;2023-06-14T10:12:40;101655.72;;;30.39;30.42
76424;BME280;65257;52.104;4.268;2023-06-14T10:15:09;101666.09;;;31.87;29.78
76424;BME280;65257;52.104;4.268;2023-06-14T10:17:51;101663.38;;;31.44;29.75
76424;BME280;65257;52.104;4.268;2023-06-14T10:23:00;101663.31;;;30.99;29.61
76424;BME280;65257;52.104;4.268;2023-06-14T10:25:30;101671.28;;;31.22;28.29
76424;BME280;65257;52.104;4.268;2023-06-14T10:31:08;101663.53;;;29.88;29.32
76424;BME280;65257;52.104;4.268;2023-06-14T10:33:36;101659.06;;;30.69;28.59
76424;BME280;65257;52.104;4.268;2023-06-14T10:36:25;101655.59;;;29.59;30.25
76424;BME280;65257;52.104;4.268;2023-06-14T10:39:14;101676.91;;;29.82;31.37
76424;BME280;65257;52.104;4.268;2023-06-14T10:41:41;101673.84;;;29.66;30.99
76424;BME280;65257;52.104;4.268;2023-06-14T10:44:30;101670.44;;;30.46;29.44
76424;BME280;65257;52.104;4.268;2023-06-14T10:47:00;101669.78;;;30.66;29.87
76424;BME280;65257;52.104;4.268;2023-06-14T10:49:45;101676.91;;;31.13;27.90
76424;BME280;65257;52.104;4.268;2023-06-14T10:52:23;101671.72;;;30.61;29.40
76424;BME280;65257;52.104;4.268;2023-06-14T10:55:16;101664.50;;;30.66;28.95
76424;BME280;65257;52.104;4.268;2023-06-14T10:57:52;101667.81;;;31.20;27.44
76424;BME280;65257;52.104;4.268;2023-06-14T11:00:23;101660.25;;;30.85;27.24
76424;BME280;65257;52.104;4.268;2023-06-14T11:05:55;101667.94;;;31.40;26.80
76424;BME280;65257;52.104;4.268;2023-06-14T11:11:47;101660.69;;;31.22;25.81
76424;BME280;65257;52.104;4.268;2023-06-14T11:14:25;101654.75;;;31.16;25.97
76424;BME280;65257;52.104;4.268;2023-06-14T11:17:13;101662.88;;;30.86;25.78
76424;BME280;65257;52.104;4.268;2023-06-14T11:20:11;101653.28;;;30.84;25.44
76424;BME280;65257;52.104;4.268;2023-06-14T11:22:42;101654.03;;;31.12;25.01
76424;BME280;65257;52.104;4.268;2023-06-14T11:25:17;101653.47;;;30.78;24.99
76424;BME280;65257;52.104;4.268;2023-06-14T11:27:44;101651.63;;;30.80;24.96
76424;BME280;65257;52.104;4.268;2023-06-14T11:30:27;101655.41;;;30.73;25.77
76424;BME280;65257;52.104;4.268;2023-06-14T11:33:16;101659.19;;;31.15;25.00
76424;BME280;65257;52.104;4.268;2023-06-14T11:35:46;101651.09;;;30.70;25.42
76424;BME280;65257;52.104;4.268;2023-06-14T11:38:12;101643.22;;;30.69;25.92
76424;BME280;65257;52.104;4.268;2023-06-14T11:40:40;101646.78;;;30.43;25.57
76424;BME280;65257;52.104;4.268;2023-06-14T11:43:05;101645.53;;;31.03;25.05
76424;BME280;65257;52.104;4.268;2023-06-14T11:45:31;101645.41;;;31.30;24.95
76424;BME280;65257;52.104;4.268;2023-06-14T11:47:59;101644.56;;;31.05;24.68
76424;BME280;65257;52.104;4.268;2023-06-14T11:50:25;101645.41;;;31.07;24.49
76424;BME280;65257;52.104;4.268;2023-06-14T11:52:53;101641.47;;;30.94;25.46
76424;BME280;65257;52.104;4.268;2023-06-14T11:55:19;101640.69;;;30.66;25.23
76424;BME280;65257;52.104;4.268;2023-06-14T11:57:48;101643.91;;;30.23;25.24
76424;BME280;65257;52.104;4.268;2023-06-14T12:00:15;101650.03;;;30.23;25.71
76424;BME280;65257;52.104;4.268;2023-06-14T12:02:52;101646.97;;;29.54;26.07
76424;BME280;65257;52.104;4.268;2023-06-14T12:05:24;101647.47;;;30.22;24.45
76424;BME280;65257;52.104;4.268;2023-06-14T12:07:50;101640.41;;;30.49;24.34
76424;BME280;65257;52.104;4.268;2023-06-14T12:10:21;101653.94;;;29.86;24.78
76424;BME280;65257;52.104;4.268;2023-06-14T12:12:51;101641.03;;;29.75;25.10
76424;BME280;65257;52.104;4.268;2023-06-14T12:15:21;101640.59;;;29.90;24.85
76424;BME280;65257;52.104;4.268;2023-06-14T12:17:49;101646.41;;;29.13;25.60
76424;BME280;65257;52.104;4.268;2023-06-14T12:20:16;101645.44;;;28.51;26.78
76424;BME280;65257;52.104;4.268;2023-06-14T12:22:55;101651.00;;;28.06;27.69
76424;BME280;65257;52.104;4.268;2023-06-14T12:25:41;101633.84;;;27.88;28.85
76424;BME280;65257;52.104;4.268;2023-06-14T12:28:13;101641.75;;;27.48;30.87
76424;BME280;65257;52.104;4.268;2023-06-14T12:30:39;101644.09;;;27.62;31.32
76424;BME280;65257;52.104;4.268;2023-06-14T12:33:04;101644.53;;;28.19;30.67
76424;BME280;65257;52.104;4.268;2023-06-14T12:35:30;101652.09;;;27.57;30.85
76424;BME280;65257;52.104;4.268;2023-06-14T12:37:57;101653.19;;;27.85;31.13
76424;BME280;65257;52.104;4.268;2023-06-14T12:40:44;101637.78;;;27.70;31.71
76424;BME280;65257;52.104;4.268;2023-06-14T12:43:19;101643.59;;;28.20;30.23
76424;BME280;65257;52.104;4.268;2023-06-14T12:45:45;101643.31;;;28.32;30.02
76424;BME280;65257;52.104;4.268;2023-06-14T12:48:12;101645.34;;;28.21;28.73
76424;BME280;65257;52.104;4.268;2023-06-14T12:50:38;101648.81;;;28.23;28.75
76424;BME280;65257;52.104;4.268;2023-06-14T12:53:31;101639.53;;;28.08;29.73
76424;BME280;65257;52.104;4.268;2023-06-14T12:56:05;101637.94;;;28.00;29.78
76424;BME280;65257;52.104;4.268;2023-06-14T12:58:53;101647.22;;;28.16;28.65
76424;BME280;65257;52.104;4.268;2023-06-14T13:01:19;101642.88;;;27.76;30.51
76424;BME280;65257;52.104;4.268;2023-06-14T13:03:46;101653.56;;;27.70;29.87